Time;durP1;ratioP1;P1;durP2;ratioP2;P2;SDS_P1;SDS_P2;PMS_P1;PMS_P2;Temp;Humidity;BMP_temperature;BMP_pressure;BME280_temperature;BME280_humidity;BME280_pressure;Samples;Min_cycle;Max_cycle;Signal;HPM_P1;HPM_P2
2023/05/24 00:01:08;;;;;;;9.25;3.75;;;7.70;99.90;;;;;;5073656;28;20228;-61
2023/05/24 00:03:38;;;;;;;13.32;3.90;;;7.80;99.90;;;;;;5073367;28;20233;-62
2023/05/24 00:06:05;;;;;;;7.50;4.00;;;7.80;99.90;;;;;;5073938;28;20252;-60
2023/05/24 00:08:32;;;;;;;8.85;3.35;;;7.80;99.90;;;;;;5073163;28;20209;-61
2023/05/24 00:10:59;;;;;;;7.85;3.05;;;7.90;99.90;;;;;;5073215;28;20232;-61
2023/05/24 00:13:26;;;;;;;9.30;2.78;;;7.90;99.90;;;;;;5073636;28;20200;-61
2023/05/24 00:15:53;;;;;;;10.68;3.28;;;7.90;99.90;;;;;;5073308;28;20242;-62
2023/05/24 00:18:20;;;;;;;15.20;3.75;;;7.80;99.90;;;;;;5073184;28;20203;-60
2023/05/24 00:20:48;;;;;;;11.88;4.20;;;7.80;99.90;;;;;;5073902;28;20315;-60
2023/05/24 00:23:15;;;;;;;9.07;3.80;;;7.80;99.90;;;;;;5073031;28;20201;-61
2023/05/24 00:25:42;;;;;;;8.30;3.40;;;7.70;99.90;;;;;;5073432;28;20205;-62
2023/05/24 00:28:09;;;;;;;13.15;4.13;;;7.70;99.90;;;;;;5083061;28;20211;-61
2023/05/24 00:30:35;;;;;;;10.23;3.85;;;7.60;99.90;;;;;;5081890;28;20216;-61
2023/05/24 00:33:02;;;;;;;10.20;3.78;;;7.60;99.90;;;;;;5077875;28;20212;-61
2023/05/24 00:35:29;;;;;;;12.88;3.58;;;7.50;99.90;;;;;;5077702;28;20205;-61
2023/05/24 00:37:57;;;;;;;9.73;3.35;;;7.50;99.90;;;;;;5077302;28;20565;-62
2023/05/24 00:40:25;;;;;;;12.98;3.90;;;7.50;99.90;;;;;;5077283;28;20674;-61
2023/05/24 00:42:51;;;;;;;8.13;3.78;;;7.50;99.90;;;;;;5077183;28;20240;-60
2023/05/24 00:45:18;;;;;;;10.95;3.90;;;7.50;99.90;;;;;;5077116;28;20579;-61
2023/05/24 00:47:46;;;;;;;11.15;3.88;;;7.50;99.90;;;;;;5076553;28;20674;-61
2023/05/24 00:50:15;;;;;;;9.75;3.75;;;7.50;99.90;;;;;;5076823;28;20575;-61
2023/05/24 00:52:43;;;;;;;16.75;4.38;;;7.60;99.90;;;;;;5076851;28;20238;-61
2023/05/24 00:55:11;;;;;;;10.45;4.53;;;7.60;99.90;;;;;;5077046;28;20212;-61
2023/05/24 00:57:38;;;;;;;8.73;3.22;;;7.50;99.90;;;;;;5076846;28;20240;-60
2023/05/24 01:00:07;;;;;;;8.57;3.63;;;7.50;99.90;;;;;;5077307;28;20197;-61
2023/05/24 01:02:33;;;;;;;13.80;3.78;;;7.50;99.90;;;;;;5077175;28;20201;-62
2023/05/24 01:05:00;;;;;;;10.07;4.07;;;7.40;99.90;;;;;;5077144;28;20205;-60
2023/05/24 01:07:36;;;;;;;16.75;4.20;;;7.40;99.90;;;;;;5077230;28;20201;-61
2023/05/24 01:10:15;;;;;;;11.48;3.83;;;7.40;99.90;;;;;;5077006;28;20205;-61
2023/05/24 01:12:55;;;;;;;15.27;3.55;;;7.40;99.90;;;;;;5077009;28;20189;-60
2023/05/24 01:15:28;;;;;;;12.73;3.78;;;7.40;99.90;;;;;;5077154;28;20203;-61
2023/05/24 01:18:04;;;;;;;8.07;3.22;;;7.40;99.90;;;;;;5077415;28;20227;-61
2023/05/24 01:20:33;;;;;;;13.98;4.80;;;7.40;99.90;;;;;;5077177;28;20259;-61
2023/05/24 01:23:14;;;;;;;12.82;3.78;;;7.30;99.90;;;;;;5078160;28;20213;-61
2023/05/24 01:26:06;;;;;;;17.65;4.80;;;7.30;99.90;;;;;;5076933;28;20639;-60
2023/05/24 01:28:35;;;;;;;13.30;3.03;;;7.30;99.90;;;;;;5069128;28;20213;-61
2023/05/24 01:31:02;;;;;;;9.60;4.20;;;7.20;99.90;;;;;;5076330;28;20247;-60
2023/05/24 01:33:30;;;;;;;10.05;4.15;;;7.20;99.90;;;;;;5076049;28;20208;-62
2023/05/24 01:35:56;;;;;;;14.55;4.72;;;7.20;99.90;;;;;;5075733;28;20677;-61
2023/05/24 01:38:23;;;;;;;12.10;4.10;;;7.20;99.90;;;;;;5075501;28;20224;-62
2023/05/24 01:40:57;;;;;;;17.20;4.55;;;7.20;99.90;;;;;;5076444;28;20320;-60
2023/05/24 01:43:30;;;;;;;14.18;4.38;;;7.20;99.90;;;;;;5075887;28;20189;-62
2023/05/24 01:46:06;;;;;;;11.75;3.38;;;7.20;99.90;;;;;;5076666;28;20192;-60
2023/05/24 01:48:39;;;;;;;9.05;3.95;;;7.20;99.90;;;;;;5076243;28;20208;-60
2023/05/24 01:51:10;;;;;;;12.13;5.32;;;7.20;99.90;;;;;;5076093;28;20221;-61
2023/05/24 01:53:45;;;;;;;13.95;4.70;;;7.30;99.90;;;;;;5075822;28;20190;-61
2023/05/24 01:56:12;;;;;;;13.70;3.50;;;7.30;99.90;;;;;;5075633;28;20189;-61
2023/05/24 01:58:43;;;;;;;12.80;4.90;;;7.30;99.90;;;;;;5075935;28;20204;-62
2023/05/24 02:01:12;;;;;;;8.95;3.55;;;7.40;99.90;;;;;;5075928;28;20224;-60
2023/05/24 02:03:40;;;;;;;15.35;3.97;;;7.40;99.90;;;;;;5075520;28;20209;-61
2023/05/24 02:06:07;;;;;;;21.20;5.25;;;7.40;99.90;;;;;;5076199;28;20207;-61
2023/05/24 02:08:34;;;;;;;13.65;4.03;;;7.40;99.90;;;;;;5080768;28;20201;-62
2023/05/24 02:11:01;;;;;;;14.50;5.22;;;7.40;99.90;;;;;;5075763;28;20228;-62
2023/05/24 02:13:28;;;;;;;9.00;3.70;;;7.40;99.90;;;;;;5074933;28;20226;-63
2023/05/24 02:15:55;;;;;;;8.77;4.10;;;7.50;99.90;;;;;;5075245;28;20208;-61
2023/05/24 02:18:23;;;;;;;14.10;5.28;;;7.40;99.90;;;;;;5075056;28;20225;-61
2023/05/24 02:20:50;;;;;;;16.17;4.38;;;7.40;99.90;;;;;;5074780;28;20235;-61
2023/05/24 02:23:16;;;;;;;21.83;6.13;;;7.40;99.90;;;;;;5074748;28;20204;-61
2023/05/24 02:25:43;;;;;;;11.90;5.28;;;7.40;99.90;;;;;;5074907;28;20201;-61
2023/05/24 02:28:10;;;;;;;14.65;4.50;;;7.40;99.90;;;;;;5074996;28;20197;-62
2023/05/24 02:30:38;;;;;;;12.60;4.85;;;7.40;99.90;;;;;;5074846;28;20217;-62
2023/05/24 02:33:05;;;;;;;16.67;4.45;;;7.40;99.90;;;;;;5074548;28;20736;-62
2023/05/24 02:35:33;;;;;;;12.35;4.10;;;7.40;99.90;;;;;;5074971;28;20228;-62
2023/05/24 02:38:00;;;;;;;11.45;4.95;;;7.40;99.90;;;;;;5074248;28;20698;-62
2023/05/24 02:40:27;;;;;;;14.20;4.55;;;7.40;99.90;;;;;;5074763;28;20284;-62
2023/05/24 02:42:53;;;;;;;18.30;4.90;;;7.40;99.90;;;;;;5074651;28;20212;-62
2023/05/24 02:45:20;;;;;;;13.82;5.28;;;7.40;99.90;;;;;;5074566;28;20204;-62
2023/05/24 02:47:47;;;;;;;16.27;5.35;;;7.40;99.90;;;;;;5074355;28;20734;-61
2023/05/24 02:50:14;;;;;;;15.73;4.57;;;7.40;99.90;;;;;;5073506;28;20197;-62
2023/05/24 02:52:42;;;;;;;16.60;4.40;;;7.40;99.90;;;;;;5074299;28;20201;-62
2023/05/24 02:55:10;;;;;;;20.65;5.32;;;7.40;99.90;;;;;;5074771;28;20746;-63
2023/05/24 02:57:37;;;;;;;13.90;4.40;;;7.40;99.90;;;;;;5074120;28;20216;-61
2023/05/24 03:00:05;;;;;;;14.07;5.03;;;7.40;99.90;;;;;;5074473;28;20208;-61
2023/05/24 03:02:37;;;;;;;16.27;6.88;;;7.40;99.90;;;;;;5075462;28;20596;-61
2023/05/24 03:05:04;;;;;;;20.15;5.20;;;7.40;99.90;;;;;;5077257;28;20185;-62
2023/05/24 03:07:31;;;;;;;17.85;5.35;;;7.40;99.90;;;;;;5078770;28;20193;-61
2023/05/24 03:09:59;;;;;;;18.90;5.55;;;7.40;99.90;;;;;;5078757;28;20209;-61
2023/05/24 03:12:26;;;;;;;10.45;5.25;;;7.40;99.90;;;;;;5077065;28;20221;-62
2023/05/24 03:14:53;;;;;;;12.70;4.55;;;7.40;99.90;;;;;;5078032;28;20197;-62
2023/05/24 03:17:19;;;;;;;19.45;6.10;;;7.40;99.90;;;;;;5077601;28;20235;-61
2023/05/24 03:19:46;;;;;;;20.48;5.13;;;7.40;99.90;;;;;;5078595;28;20197;-62
2023/05/24 03:22:13;;;;;;;12.32;4.88;;;7.30;99.90;;;;;;5078659;28;20568;-61
2023/05/24 03:24:40;;;;;;;24.73;5.60;;;7.30;99.90;;;;;;5077450;28;20212;-62
2023/05/24 03:27:08;;;;;;;21.90;4.80;;;7.30;99.90;;;;;;5076745;28;20547;-60
2023/05/24 03:29:34;;;;;;;14.75;5.80;;;7.30;99.90;;;;;;5075046;28;20197;-62
2023/05/24 03:32:01;;;;;;;14.80;5.35;;;7.30;99.90;;;;;;5073373;28;20232;-60
2023/05/24 03:34:29;;;;;;;13.98;5.20;;;7.30;99.90;;;;;;5073208;28;20682;-61
2023/05/24 03:36:55;;;;;;;19.35;5.90;;;7.30;99.90;;;;;;5073460;28;20211;-62
2023/05/24 03:39:22;;;;;;;11.25;4.82;;;7.30;99.90;;;;;;5073472;28;20205;-62
2023/05/24 03:41:49;;;;;;;15.35;4.90;;;7.40;99.90;;;;;;5073415;28;20225;-62
2023/05/24 03:44:17;;;;;;;21.38;5.22;;;7.40;99.90;;;;;;5073180;28;20212;-62
2023/05/24 03:46:44;;;;;;;15.30;5.22;;;7.40;99.90;;;;;;5073463;28;20228;-62
2023/05/24 03:49:10;;;;;;;21.30;5.82;;;7.50;99.90;;;;;;5077372;28;20228;-61
2023/05/24 03:51:37;;;;;;;11.55;5.70;;;7.50;99.90;;;;;;5076649;28;20303;-61
2023/05/24 03:54:04;;;;;;;21.08;5.85;;;7.50;99.90;;;;;;5074387;28;20217;-62
2023/05/24 03:56:31;;;;;;;20.05;6.25;;;7.60;99.90;;;;;;5074352;28;20200;-61
2023/05/24 03:58:59;;;;;;;13.13;4.70;;;7.60;99.90;;;;;;5072875;28;20698;-62
2023/05/24 04:01:29;;;;;;;12.00;5.38;;;7.70;99.90;;;;;;5073012;28;20221;-61
2023/05/24 04:03:56;;;;;;;22.85;5.97;;;7.70;99.90;;;;;;5073378;28;20224;-61
2023/05/24 04:06:27;;;;;;;12.15;5.38;;;7.80;99.90;;;;;;5073327;28;20201;-60
2023/05/24 04:11:46;;;;;;;18.65;4.80;;;7.90;99.90;;;;;;5111111;27;20617;-62
2023/05/24 04:14:13;;;;;;;13.75;4.60;;;8.00;99.90;;;;;;5111484;28;20199;-63
2023/05/24 04:16:40;;;;;;;20.73;4.95;;;8.00;99.90;;;;;;5111184;28;20222;-63
2023/05/24 04:19:07;;;;;;;14.75;5.50;;;8.10;99.90;;;;;;5110981;28;20223;-62
2023/05/24 04:21:36;;;;;;;21.00;5.55;;;8.20;99.90;;;;;;5111173;28;20211;-62
2023/05/24 04:24:03;;;;;;;16.58;5.38;;;8.30;99.90;;;;;;5111067;28;20199;-62
2023/05/24 04:26:30;;;;;;;20.65;5.97;;;8.30;99.90;;;;;;5111199;28;20586;-63
2023/05/24 04:28:59;;;;;;;17.25;6.10;;;8.40;99.90;;;;;;5111357;28;20572;-63
2023/05/24 04:31:28;;;;;;;15.82;4.90;;;8.40;99.90;;;;;;5110883;28;20264;-62
2023/05/24 04:33:55;;;;;;;18.05;5.70;;;8.50;99.90;;;;;;5111238;28;20204;-62
2023/05/24 04:36:23;;;;;;;11.93;5.25;;;8.50;99.90;;;;;;5112612;28;20614;-63
2023/05/24 04:38:52;;;;;;;12.60;5.78;;;8.50;99.90;;;;;;5112225;28;20240;-61
2023/05/24 04:41:21;;;;;;;18.88;5.63;;;8.50;99.90;;;;;;5111795;28;20226;-62
2023/05/24 04:43:47;;;;;;;17.42;6.30;;;8.50;99.90;;;;;;5111002;28;20563;-63
2023/05/24 04:46:16;;;;;;;14.80;4.65;;;8.60;99.90;;;;;;5110477;28;20204;-62
2023/05/24 04:48:42;;;;;;;19.52;5.10;;;8.90;99.90;;;;;;5110883;28;20567;-63
2023/05/24 04:51:09;;;;;;;19.83;6.00;;;9.40;99.90;;;;;;5110435;28;20224;-62
2023/05/24 04:53:37;;;;;;;12.20;4.13;;;9.80;99.90;;;;;;5112282;28;20809;-63
2023/05/24 04:56:04;;;;;;;14.10;4.90;;;10.00;99.90;;;;;;5112434;28;20450;-63
2023/05/24 04:58:32;;;;;;;18.10;5.47;;;10.30;99.90;;;;;;5110980;28;20449;-63
2023/05/24 05:00:58;;;;;;;14.87;5.50;;;10.60;99.90;;;;;;5109823;28;20548;-63
2023/05/24 05:03:26;;;;;;;15.87;4.90;;;11.00;99.90;;;;;;5134351;22;20777;-59
2023/05/24 05:05:53;;;;;;;11.70;4.47;;;11.30;99.90;;;;;;5110437;28;20418;-60
2023/05/24 05:08:20;;;;;;;16.70;5.20;;;11.40;99.90;;;;;;5110627;28;20551;-58
2023/05/24 05:10:47;;;;;;;15.50;4.10;;;11.20;99.90;;;;;;5109655;28;20841;-58
2023/05/24 05:13:13;;;;;;;13.27;4.37;;;10.90;99.90;;;;;;5109842;28;20910;-58
2023/05/24 05:15:40;;;;;;;14.83;4.73;;;10.60;99.90;;;;;;5109819;28;21009;-60
2023/05/24 05:18:07;;;;;;;22.67;5.90;;;10.30;99.90;;;;;;5110003;28;20454;-59
2023/05/24 05:20:35;;;;;;;20.53;5.20;;;10.20;99.90;;;;;;5110271;28;20440;-60
2023/05/24 05:23:02;;;;;;;12.70;4.83;;;10.00;99.90;;;;;;5096824;28;20537;-59
2023/05/24 05:25:29;;;;;;;16.33;5.10;;;10.00;99.90;;;;;;5096744;28;20465;-60
2023/05/24 05:27:56;;;;;;;13.73;4.97;;;10.20;99.90;;;;;;5097363;28;20796;-58
2023/05/24 05:30:23;;;;;;;18.00;5.13;;;10.50;99.90;;;;;;5096388;28;21105;-59
2023/05/24 05:32:50;;;;;;;11.97;4.87;;;10.80;99.90;;;;;;5096517;28;20822;-58
2023/05/24 05:35:16;;;;;;;17.50;6.20;;;11.10;99.90;;;;;;5096680;28;20470;-58
2023/05/24 05:37:44;;;;;;;16.40;5.30;;;11.40;99.90;;;;;;5096741;28;20478;-57
2023/05/24 05:40:12;;;;;;;10.37;4.33;;;11.50;99.90;;;;;;5096792;28;20438;-59
2023/05/24 05:42:39;;;;;;;14.60;4.80;;;11.30;99.90;;;;;;5097152;28;20447;-59
2023/05/24 05:45:07;;;;;;;10.70;5.50;;;11.10;99.90;;;;;;5096381;28;20458;-60
2023/05/24 05:47:34;;;;;;;15.87;5.10;;;10.80;99.90;;;;;;5096312;28;20434;-57
2023/05/24 05:50:01;;;;;;;16.70;4.77;;;10.60;99.90;;;;;;5095773;28;20939;-59
2023/05/24 05:52:28;;;;;;;14.47;5.17;;;10.30;99.90;;;;;;5095935;28;20438;-59
2023/05/24 05:54:56;;;;;;;19.07;5.37;;;10.30;99.90;;;;;;5096361;28;20891;-57
2023/05/24 05:57:23;;;;;;;11.40;5.67;;;10.30;99.90;;;;;;5096078;28;20764;-59
2023/05/24 05:59:49;;;;;;;16.07;5.37;;;10.30;99.90;;;;;;5095842;28;20504;-58
2023/05/24 06:02:17;;;;;;;15.23;5.33;;;10.40;99.90;;;;;;5095609;28;20450;-58
2023/05/24 06:04:44;;;;;;;19.93;5.27;;;10.40;99.90;;;;;;5095444;28;20912;-60
2023/05/24 06:07:11;;;;;;;12.30;4.27;;;10.50;99.90;;;;;;5095841;28;20446;-58
2023/05/24 06:09:37;;;;;;;22.40;5.67;;;10.60;99.90;;;;;;5096066;28;20438;-59
2023/05/24 06:12:06;;;;;;;17.80;5.63;;;10.60;99.90;;;;;;5096033;28;20482;-58
2023/05/24 06:14:33;;;;;;;12.60;5.40;;;10.70;99.90;;;;;;5095751;28;20466;-59
2023/05/24 06:17:00;;;;;;;15.57;5.20;;;10.90;99.90;;;;;;5095364;28;20968;-58
2023/05/24 06:19:27;;;;;;;17.00;5.37;;;11.20;99.90;;;;;;5095906;28;20442;-61
2023/05/24 06:21:54;;;;;;;20.40;4.90;;;11.40;99.90;;;;;;5096183;28;20449;-59
2023/05/24 06:24:21;;;;;;;13.80;5.07;;;11.70;99.90;;;;;;5095212;28;20611;-59
2023/05/24 06:26:48;;;;;;;12.37;5.00;;;11.80;99.90;;;;;;5095292;28;20438;-59
2023/05/24 06:29:18;;;;;;;17.87;5.87;;;11.90;99.90;;;;;;5096214;28;20447;-58
2023/05/24 06:31:46;;;;;;;11.30;4.97;;;11.90;99.90;;;;;;5096616;28;20566;-58
2023/05/24 06:34:15;;;;;;;17.47;6.13;;;12.00;99.90;;;;;;5095273;28;20466;-58
2023/05/24 06:36:42;;;;;;;10.63;4.77;;;12.20;99.90;;;;;;5095538;28;20434;-58
2023/05/24 06:39:09;;;;;;;14.20;5.03;;;12.20;99.90;;;;;;5095009;28;20443;-60
2023/05/24 06:41:37;;;;;;;11.47;4.30;;;12.20;99.90;;;;;;5094535;28;21009;-58
2023/05/24 06:44:04;;;;;;;13.20;5.00;;;12.20;99.90;;;;;;5094340;28;20474;-58
2023/05/24 06:46:33;;;;;;;21.30;5.20;;;12.20;99.90;;;;;;5093936;28;20571;-58
2023/05/24 06:48:59;;;;;;;16.03;6.07;;;12.30;99.90;;;;;;5093980;28;20442;-59
2023/05/24 06:51:26;;;;;;;15.10;5.23;;;12.40;99.90;;;;;;5094511;28;20476;-58
2023/05/24 06:53:53;;;;;;;16.93;6.03;;;12.50;99.90;;;;;;5094491;28;20465;-59
2023/05/24 06:56:20;;;;;;;11.50;4.77;;;12.60;99.20;;;;;;5095095;28;20444;-59
2023/05/24 06:58:47;;;;;;;17.60;5.93;;;12.50;98.90;;;;;;5094322;28;20787;-59
2023/05/24 07:01:14;;;;;;;12.83;4.50;;;12.30;98.90;;;;;;5094774;28;20438;-58
2023/05/24 07:03:42;;;;;;;15.10;4.83;;;12.10;99.20;;;;;;5094712;28;20478;-59
2023/05/24 07:06:12;;;;;;;16.67;5.50;;;11.90;99.30;;;;;;5095011;28;20454;-58
2023/05/24 07:08:39;;;;;;;13.03;5.00;;;11.80;99.90;;;;;;5095961;28;20426;-58
2023/05/24 07:11:06;;;;;;;13.00;5.10;;;11.70;99.90;;;;;;5095965;28;20470;-58
2023/05/24 07:13:33;;;;;;;14.03;5.50;;;11.70;99.90;;;;;;5095363;28;20837;-59
2023/05/24 07:16:00;;;;;;;17.07;5.67;;;11.90;99.90;;;;;;5095898;28;20438;-59
2023/05/24 07:18:27;;;;;;;10.63;4.40;;;12.00;99.90;;;;;;5096103;28;20441;-59
2023/05/24 07:20:55;;;;;;;17.77;4.80;;;12.10;99.60;;;;;;5096376;28;20449;-59
2023/05/24 07:23:21;;;;;;;9.40;4.20;;;12.10;99.30;;;;;;5096542;28;20473;-59
2023/05/24 07:25:48;;;;;;;13.00;4.50;;;12.10;99.50;;;;;;5094755;28;20448;-60
2023/05/24 07:28:18;;;;;;;13.53;4.20;;;12.10;98.80;;;;;;5094913;28;20446;-58
2023/05/24 07:30:45;;;;;;;20.77;5.23;;;12.00;98.70;;;;;;5095177;28;20855;-59
2023/05/24 07:33:12;;;;;;;12.87;4.43;;;12.00;99.20;;;;;;5094965;28;20449;-60
2023/05/24 07:35:39;;;;;;;15.47;4.87;;;12.10;99.10;;;;;;5094985;28;20450;-60
2023/05/24 07:38:07;;;;;;;17.50;4.10;;;12.00;99.40;;;;;;5095153;28;20453;-60
2023/05/24 07:40:34;;;;;;;12.17;5.23;;;11.90;99.90;;;;;;5095553;28;20442;-59
2023/05/24 07:43:01;;;;;;;13.97;4.73;;;12.00;99.90;;;;;;5095120;28;20473;-59
2023/05/24 07:45:27;;;;;;;15.80;4.77;;;11.90;99.90;;;;;;5093748;28;20490;-59
2023/05/24 07:47:54;;;;;;;19.20;4.97;;;11.90;99.90;;;;;;5093473;28;20434;-59
2023/05/24 07:50:21;;;;;;;9.40;5.30;;;11.70;99.90;;;;;;5094128;28;20442;-59
2023/05/24 07:52:48;;;;;;;11.60;4.33;;;11.70;99.90;;;;;;5093875;28;20522;-59
2023/05/24 07:55:17;;;;;;;8.60;4.20;;;11.60;99.90;;;;;;5093018;28;20557;-59
2023/05/24 07:57:43;;;;;;;12.70;4.70;;;11.50;99.90;;;;;;5093162;28;20450;-60
2023/05/24 08:00:13;;;;;;;17.83;6.70;;;11.30;99.90;;;;;;5093059;28;20987;-59
2023/05/24 08:02:40;;;;;;;15.87;5.43;;;11.20;99.90;;;;;;5093740;28;20508;-59
2023/05/24 08:05:09;;;;;;;17.40;6.10;;;11.20;99.90;;;;;;5093788;28;20556;-58
2023/05/24 08:07:36;;;;;;;18.17;5.90;;;11.10;99.90;;;;;;5093997;28;20806;-57
2023/05/24 08:10:03;;;;;;;15.93;6.93;;;11.00;99.90;;;;;;5093653;28;20454;-59
2023/05/24 08:12:31;;;;;;;16.13;5.63;;;10.90;99.90;;;;;;5093911;28;20498;-60
2023/05/24 08:14:58;;;;;;;15.43;5.60;;;10.80;99.90;;;;;;5093868;28;20463;-59
2023/05/24 08:17:25;;;;;;;16.30;6.53;;;10.80;99.90;;;;;;5093855;28;20766;-59
2023/05/24 08:19:52;;;;;;;15.73;6.27;;;10.70;99.90;;;;;;5094039;28;20541;-58
2023/05/24 08:22:18;;;;;;;12.53;5.10;;;10.60;99.90;;;;;;5093000;28;20457;-59
2023/05/24 08:24:46;;;;;;;17.40;6.80;;;10.50;99.90;;;;;;5092472;28;20543;-59
2023/05/24 08:27:12;;;;;;;17.70;6.33;;;10.40;99.90;;;;;;5092680;28;20822;-60
2023/05/24 08:29:41;;;;;;;11.37;6.00;;;10.20;99.90;;;;;;5093071;28;20880;-60
2023/05/24 08:32:08;;;;;;;14.80;6.32;;;10.10;99.90;;;;;;5096783;28;20486;-60
2023/05/24 08:34:36;;;;;;;16.02;6.25;;;10.00;99.90;;;;;;5099197;28;20311;-59
2023/05/24 08:37:03;;;;;;;15.95;7.72;;;10.00;99.90;;;;;;5100343;28;20211;-60
2023/05/24 08:39:30;;;;;;;11.63;5.93;;;10.00;99.90;;;;;;5097024;28;20205;-58
2023/05/24 08:41:58;;;;;;;19.50;6.20;;;10.10;99.90;;;;;;5094192;28;20940;-58
2023/05/24 08:44:25;;;;;;;18.13;6.95;;;10.20;99.90;;;;;;5093682;28;21002;-59
2023/05/24 08:46:54;;;;;;;20.10;6.78;;;10.20;99.90;;;;;;5093598;28;20295;-59
2023/05/24 08:49:21;;;;;;;21.13;6.60;;;10.20;99.90;;;;;;5093617;28;20226;-60
2023/05/24 08:51:50;;;;;;;11.60;5.33;;;10.30;99.90;;;;;;5094609;28;20470;-61
2023/05/24 08:54:17;;;;;;;13.80;6.17;;;10.40;99.90;;;;;;5093650;28;20474;-59
2023/05/24 08:56:44;;;;;;;19.50;7.10;;;10.40;99.90;;;;;;5095877;28;20488;-61
2023/05/24 08:59:12;;;;;;;16.23;6.20;;;10.30;99.90;;;;;;5098418;28;20447;-60
2023/05/24 09:01:41;;;;;;;12.70;5.57;;;10.30;99.90;;;;;;5098415;28;20543;-58
2023/05/24 09:04:09;;;;;;;14.97;6.50;;;10.30;99.90;;;;;;5097894;28;20474;-60
2023/05/24 09:06:36;;;;;;;16.80;7.00;;;10.20;99.90;;;;;;5098209;28;20453;-59
2023/05/24 09:09:04;;;;;;;21.92;7.40;;;10.20;99.90;;;;;;5096957;28;21006;-59
2023/05/24 09:11:32;;;;;;;18.43;7.30;;;10.20;99.90;;;;;;5097655;28;20220;-59
2023/05/24 09:14:00;;;;;;;12.73;6.23;;;10.30;99.90;;;;;;5097070;28;20946;-61
2023/05/24 09:16:27;;;;;;;17.07;7.40;;;10.40;99.90;;;;;;5096752;28;20446;-60
2023/05/24 09:18:54;;;;;;;15.67;6.07;;;10.40;99.90;;;;;;5096853;28;20450;-61
2023/05/24 09:21:23;;;;;;;14.67;5.90;;;10.50;99.90;;;;;;5097573;28;20500;-59
2023/05/24 09:23:51;;;;;;;12.77;7.20;;;10.60;99.90;;;;;;5097750;28;20857;-60
2023/05/24 09:26:17;;;;;;;26.23;9.07;;;10.70;99.90;;;;;;5096706;28;20442;-59
2023/05/24 09:28:46;;;;;;;13.60;6.90;;;10.80;99.90;;;;;;5098297;28;20457;-60
2023/05/24 09:31:13;;;;;;;15.40;6.40;;;10.90;99.90;;;;;;5097943;28;20470;-59
2023/05/24 09:33:40;;;;;;;13.87;6.93;;;10.90;99.90;;;;;;5097384;28;20462;-59
2023/05/24 09:36:07;;;;;;;17.17;6.73;;;11.10;99.90;;;;;;5097067;28;20450;-59
2023/05/24 09:38:35;;;;;;;17.77;7.37;;;11.10;99.90;;;;;;5096645;28;20453;-59
2023/05/24 09:41:03;;;;;;;23.50;6.60;;;11.10;99.90;;;;;;5097121;28;20458;-59
2023/05/24 09:43:33;;;;;;;17.90;7.37;;;11.10;99.90;;;;;;5096061;28;20465;-59
2023/05/24 09:46:03;;;;;;;14.10;5.57;;;11.00;99.90;;;;;;5097538;28;20446;-60
2023/05/24 09:48:30;;;;;;;17.40;6.80;;;11.00;99.90;;;;;;5098008;28;20495;-60
2023/05/24 09:51:00;;;;;;;9.87;5.60;;;11.00;99.90;;;;;;5097381;28;20451;-60
2023/05/24 09:53:27;;;;;;;13.03;6.50;;;11.00;99.90;;;;;;5096431;28;20457;-60
2023/05/24 09:55:55;;;;;;;14.77;6.97;;;11.00;99.90;;;;;;5096550;28;20442;-62
2023/05/24 09:58:22;;;;;;;11.80;6.53;;;11.00;99.90;;;;;;5096072;28;20924;-60
2023/05/24 10:00:50;;;;;;;12.93;7.27;;;11.10;99.90;;;;;;5096693;28;20439;-60
2023/05/24 10:03:16;;;;;;;15.73;6.40;;;11.20;99.90;;;;;;5095079;28;20443;-61
2023/05/24 10:05:45;;;;;;;15.83;6.50;;;11.30;99.90;;;;;;5095790;28;20445;-61
2023/05/24 10:08:13;;;;;;;16.60;7.50;;;11.40;99.90;;;;;;5096170;28;20453;-61
2023/05/24 10:10:41;;;;;;;17.27;7.73;;;11.50;99.90;;;;;;5096025;28;20446;-62
2023/05/24 10:13:10;;;;;;;14.87;6.80;;;11.50;99.90;;;;;;5095501;28;21034;-59
2023/05/24 10:15:37;;;;;;;16.73;6.60;;;11.50;99.90;;;;;;5095266;28;20954;-60
2023/05/24 10:18:07;;;;;;;23.10;7.23;;;11.50;99.90;;;;;;5096527;28;20446;-59
2023/05/24 10:20:34;;;;;;;20.60;7.37;;;11.50;99.90;;;;;;5095963;28;20453;-61
2023/05/24 10:23:03;;;;;;;16.27;7.13;;;11.50;99.90;;;;;;5095789;28;20434;-60
2023/05/24 10:25:34;;;;;;;14.83;7.60;;;11.50;99.90;;;;;;5095274;28;20962;-59
2023/05/24 10:28:07;;;;;;;11.60;7.63;;;11.40;99.90;;;;;;5094979;28;20847;-60
2023/05/24 10:30:43;;;;;;;14.43;7.73;;;11.40;99.90;;;;;;5095261;28;20788;-59
2023/05/24 10:33:13;;;;;;;18.20;8.30;;;11.30;99.90;;;;;;5095582;28;20470;-60
2023/05/24 10:35:41;;;;;;;25.57;9.27;;;11.10;99.90;;;;;;5094589;28;20860;-62
2023/05/24 10:38:09;;;;;;;13.53;8.03;;;11.00;99.90;;;;;;5095008;28;20446;-62
2023/05/24 10:40:41;;;;;;;18.57;9.10;;;10.90;99.90;;;;;;5094666;28;20474;-59
2023/05/24 10:43:08;;;;;;;27.77;11.47;;;10.80;99.90;;;;;;5095240;28;20502;-60
2023/05/24 10:45:39;;;;;;;22.07;10.10;;;10.70;99.90;;;;;;5095355;28;20550;-60
2023/05/24 10:48:36;;;;;;;21.50;8.93;;;10.70;99.90;;;;;;5095385;28;20430;-61
2023/05/24 10:51:31;;;;;;;19.17;9.85;;;10.70;99.90;;;;;;5095497;28;20446;-60
2023/05/24 10:53:58;;;;;;;17.10;8.93;;;10.70;99.90;;;;;;5095271;28;20230;-60
2023/05/24 10:56:28;;;;;;;18.30;8.50;;;10.80;99.90;;;;;;5094908;28;20442;-61
2023/05/24 10:59:01;;;;;;;19.20;9.07;;;10.70;99.90;;;;;;5094812;28;20438;-60
2023/05/24 11:01:30;;;;;;;19.13;9.00;;;10.70;99.90;;;;;;5095442;28;20188;-60
2023/05/24 11:04:07;;;;;;;19.97;8.77;;;10.70;99.90;;;;;;5114527;22;20483;-60
2023/05/24 11:06:48;;;;;;;17.23;8.60;;;10.70;99.90;;;;;;5074331;28;20431;-62
2023/05/24 11:09:15;;;;;;;18.67;8.90;;;10.80;99.90;;;;;;5074083;28;20455;-63
2023/05/24 11:11:45;;;;;;;14.00;8.40;;;10.90;99.90;;;;;;5074608;28;20458;-62
2023/05/24 11:14:12;;;;;;;20.40;9.30;;;10.90;99.90;;;;;;5074789;28;20544;-61
2023/05/24 11:16:41;;;;;;;22.80;8.53;;;10.90;99.90;;;;;;5076102;28;20527;-61
2023/05/24 11:19:18;;;;;;;17.20;8.40;;;11.00;99.90;;;;;;5075536;28;20934;-62
2023/05/24 11:21:46;;;;;;;21.33;9.00;;;11.00;99.90;;;;;;5077905;28;20507;-61
2023/05/24 11:24:13;;;;;;;16.50;8.60;;;11.00;99.90;;;;;;5077819;28;20459;-61
2023/05/24 11:26:40;;;;;;;15.97;8.73;;;11.10;99.90;;;;;;5076321;28;20447;-63
2023/05/24 11:29:08;;;;;;;17.63;8.57;;;11.20;99.90;;;;;;5078450;28;20447;-61
2023/05/24 11:31:38;;;;;;;19.97;10.40;;;11.40;99.90;;;;;;5076792;28;20541;-62
2023/05/24 11:34:09;;;;;;;21.10;7.53;;;11.60;99.90;;;;;;5075534;28;20474;-61
2023/05/24 11:36:36;;;;;;;19.33;8.67;;;11.70;99.90;;;;;;5075171;28;20405;-60
2023/05/24 11:39:08;;;;;;;21.00;8.60;;;11.80;99.90;;;;;;5073564;28;20443;-61
2023/05/24 11:41:36;;;;;;;13.17;7.80;;;11.90;99.90;;;;;;5073769;28;20458;-61
2023/05/24 11:44:03;;;;;;;14.17;8.77;;;12.00;99.90;;;;;;5073785;28;20459;-62
2023/05/24 11:46:31;;;;;;;16.00;8.50;;;12.00;99.90;;;;;;5074070;28;20996;-61
2023/05/24 11:48:58;;;;;;;15.40;7.40;;;12.20;99.90;;;;;;5073601;28;20968;-63
2023/05/24 11:51:30;;;;;;;14.33;7.67;;;12.40;99.90;;;;;;5074375;28;20443;-61
2023/05/24 11:53:57;;;;;;;23.87;7.67;;;12.60;99.90;;;;;;5073982;28;20490;-61
2023/05/24 11:56:26;;;;;;;14.70;8.80;;;12.80;99.90;;;;;;5073662;28;20649;-62
2023/05/24 11:59:04;;;;;;;12.70;6.23;;;12.90;99.90;;;;;;5074312;28;20483;-63
2023/05/24 12:01:31;;;;;;;21.27;7.47;;;13.10;99.90;;;;;;5073288;28;20436;-62
2023/05/24 12:03:58;;;;;;;16.07;7.33;;;13.30;99.90;;;;;;5073098;28;20837;-62
2023/05/24 12:06:35;;;;;;;9.93;6.00;;;13.40;99.90;;;;;;5073065;28;20434;-62
2023/05/24 12:09:04;;;;;;;10.80;6.80;;;13.60;99.90;;;;;;5073496;28;20430;-61
2023/05/24 12:11:31;;;;;;;13.17;6.10;;;13.70;99.90;;;;;;5072954;28;20542;-62
2023/05/24 12:13:59;;;;;;;18.90;7.57;;;13.80;99.90;;;;;;5072839;28;20526;-63
2023/05/24 12:16:30;;;;;;;13.30;6.90;;;13.80;99.90;;;;;;5078307;28;20443;-62
2023/05/24 12:18:57;;;;;;;11.13;5.80;;;13.70;99.90;;;;;;5074399;28;20493;-60
2023/05/24 12:21:24;;;;;;;9.53;6.10;;;13.60;99.90;;;;;;5073048;28;20435;-61
2023/05/24 12:23:52;;;;;;;14.30;6.97;;;13.60;99.90;;;;;;5072439;28;20969;-61
2023/05/24 12:26:21;;;;;;;10.03;6.83;;;13.60;99.90;;;;;;5072150;28;20956;-61
2023/05/24 12:28:53;;;;;;;10.63;6.97;;;13.60;99.90;;;;;;5072894;28;20443;-62
2023/05/24 12:31:20;;;;;;;11.10;6.00;;;13.50;99.90;;;;;;5072567;28;20432;-62
2023/05/24 12:33:47;;;;;;;15.00;7.77;;;13.50;99.90;;;;;;5077478;28;20551;-63
2023/05/24 12:36:14;;;;;;;14.80;7.53;;;13.50;99.90;;;;;;5076900;28;20469;-62
2023/05/24 12:38:41;;;;;;;15.70;5.60;;;13.60;99.90;;;;;;5076621;28;20470;-61
2023/05/24 12:41:11;;;;;;;13.33;5.97;;;13.80;99.90;;;;;;5076658;28;20513;-63
2023/05/24 12:43:39;;;;;;;19.07;6.70;;;14.00;99.90;;;;;;5076234;28;20461;-62
2023/05/24 12:46:06;;;;;;;11.53;5.87;;;14.10;99.90;;;;;;5077066;28;20443;-62
2023/05/24 12:48:33;;;;;;;14.33;6.30;;;14.50;99.90;;;;;;5077182;28;20546;-63